sensor_id;sensor_type;location;lat;lon;timestamp;pressure;altitude;pressure_sealevel;temperature;humidity
69221;BME280;56331;51.992;20.910;2022-12-07T00:01:41;99444.34;;;21.55;37.97
69221;BME280;56331;51.992;20.910;2022-12-07T00:04:11;99445.14;;;21.55;38.01
69221;BME280;56331;51.992;20.910;2022-12-07T00:06:41;99446.90;;;21.54;37.98
69221;BME280;56331;51.992;20.910;2022-12-07T00:09:16;99442.50;;;21.53;37.99
69221;BME280;56331;51.992;20.910;2022-12-07T00:11:44;99446.66;;;21.53;37.98
69221;BME280;56331;51.992;20.910;2022-12-07T00:14:13;99436.54;;;21.51;38.00
69221;BME280;56331;51.992;20.910;2022-12-07T00:16:40;99434.33;;;21.50;38.00
69221;BME280;56331;51.992;20.910;2022-12-07T00:19:06;99425.67;;;21.52;38.10
69221;BME280;56331;51.992;20.910;2022-12-07T00:21:34;99435.16;;;21.51;38.00
69221;BME280;56331;51.992;20.910;2022-12-07T00:24:02;99424.63;;;21.50;38.08
69221;BME280;56331;51.992;20.910;2022-12-07T00:26:32;99426.02;;;21.50;38.05
69221;BME280;56331;51.992;20.910;2022-12-07T00:29:06;99426.02;;;21.50;38.05
69221;BME280;56331;51.992;20.910;2022-12-07T00:31:32;99424.63;;;21.50;37.96
69221;BME280;56331;51.992;20.910;2022-12-07T00:33:59;99425.80;;;21.49;37.98
69221;BME280;56331;51.992;20.910;2022-12-07T00:36:26;99420.84;;;21.49;38.01
69221;BME280;56331;51.992;20.910;2022-12-07T00:38:54;99425.00;;;21.49;37.98
69221;BME280;56331;51.992;20.910;2022-12-07T00:41:22;99412.89;;;21.47;37.93
69221;BME280;56331;51.992;20.910;2022-12-07T00:43:50;99410.91;;;21.48;37.98
69221;BME280;56331;51.992;20.910;2022-12-07T00:46:18;99409.31;;;21.47;37.99
69221;BME280;56331;51.992;20.910;2022-12-07T00:48:46;99414.27;;;21.47;38.11
69221;BME280;56331;51.992;20.910;2022-12-07T00:51:15;99410.91;;;21.48;37.97
69221;BME280;56331;51.992;20.910;2022-12-07T00:53:42;99414.86;;;21.47;38.02
69221;BME280;56331;51.992;20.910;2022-12-07T00:56:22;99411.29;;;21.46;38.00
69221;BME280;56331;51.992;20.910;2022-12-07T00:58:57;99418.22;;;21.46;38.00
69221;BME280;56331;51.992;20.910;2022-12-07T01:01:28;99414.06;;;21.46;37.99
69221;BME280;56331;51.992;20.910;2022-12-07T01:03:53;99422.37;;;21.46;38.02
69221;BME280;56331;51.992;20.910;2022-12-07T01:06:22;99422.72;;;21.45;38.03
69221;BME280;56331;51.992;20.910;2022-12-07T01:08:49;99428.27;;;21.45;38.08
69221;BME280;56331;51.992;20.910;2022-12-07T01:11:18;99432.42;;;21.45;38.01
69221;BME280;56331;51.992;20.910;2022-12-07T01:13:45;99431.03;;;21.45;38.08
69221;BME280;56331;51.992;20.910;2022-12-07T01:16:14;99425.28;;;21.44;38.06
69221;BME280;56331;51.992;20.910;2022-12-07T01:18:42;99424.70;;;21.44;38.03
69221;BME280;56331;51.992;20.910;2022-12-07T01:21:18;99420.54;;;21.44;38.02
69221;BME280;56331;51.992;20.910;2022-12-07T01:23:42;99416.38;;;21.44;38.03
69221;BME280;56331;51.992;20.910;2022-12-07T01:29:51;99421.92;;;21.44;37.99
69221;BME280;56331;51.992;20.910;2022-12-07T01:32:18;99424.24;;;21.42;38.05
69221;BME280;56331;51.992;20.910;2022-12-07T01:34:44;99426.43;;;21.43;38.00
69221;BME280;56331;51.992;20.910;2022-12-07T01:37:13;99421.47;;;21.42;38.01
69221;BME280;56331;51.992;20.910;2022-12-07T01:39:39;99425.05;;;21.43;38.01
69221;BME280;56331;51.992;20.910;2022-12-07T01:42:11;99423.45;;;21.41;38.00
69221;BME280;56331;51.992;20.910;2022-12-07T01:47:48;99422.06;;;21.41;37.98
69221;BME280;56331;51.992;20.910;2022-12-07T01:50:11;99421.85;;;21.40;37.99
69221;BME280;56331;51.992;20.910;2022-12-07T01:52:39;99421.02;;;21.40;37.98
69221;BME280;56331;51.992;20.910;2022-12-07T01:55:09;99419.64;;;21.40;37.97
69221;BME280;56331;51.992;20.910;2022-12-07T01:57:43;99423.00;;;21.39;38.04
69221;BME280;56331;51.992;20.910;2022-12-07T02:00:06;99416.07;;;21.39;38.03
69221;BME280;56331;51.992;20.910;2022-12-07T02:02:36;99415.59;;;21.37;38.00
69221;BME280;56331;51.992;20.910;2022-12-07T02:05:05;99416.98;;;21.37;37.99
69221;BME280;56331;51.992;20.910;2022-12-07T02:07:32;99413.09;;;21.38;37.99
69221;BME280;56331;51.992;20.910;2022-12-07T02:10:15;99408.14;;;21.38;37.93
69221;BME280;56331;51.992;20.910;2022-12-07T02:12:40;99410.91;;;21.38;37.97
69221;BME280;56331;51.992;20.910;2022-12-07T02:15:07;99415.38;;;21.36;37.93
69221;BME280;56331;51.992;20.910;2022-12-07T02:20:29;99407.87;;;21.37;37.91
69221;BME280;56331;51.992;20.910;2022-12-07T02:26:02;99407.28;;;21.37;37.92
69221;BME280;56331;51.992;20.910;2022-12-07T02:30:58;99402.70;;;21.35;37.90
69221;BME280;56331;51.992;20.910;2022-12-07T02:33:29;99404.89;;;21.36;37.90
69221;BME280;56331;51.992;20.910;2022-12-07T02:36:02;99406.48;;;21.37;37.87
69221;BME280;56331;51.992;20.910;2022-12-07T02:39:00;99395.54;;;21.34;37.85
69221;BME280;56331;51.992;20.910;2022-12-07T02:41:35;99395.78;;;21.35;37.92
69221;BME280;56331;51.992;20.910;2022-12-07T02:44:06;99392.18;;;21.35;37.81
69221;BME280;56331;51.992;20.910;2022-12-07T02:46:36;99393.56;;;21.35;37.80
69221;BME280;56331;51.992;20.910;2022-12-07T02:49:03;99390.80;;;21.35;37.81
69221;BME280;56331;51.992;20.910;2022-12-07T02:51:31;99391.63;;;21.35;37.75
69221;BME280;56331;51.992;20.910;2022-12-07T02:53:58;99394.16;;;21.34;37.78
69221;BME280;56331;51.992;20.910;2022-12-07T03:11:02;99384.70;;;21.35;37.19
69221;BME280;56331;51.992;20.910;2022-12-07T03:13:12;99379.71;;;21.35;36.99
69221;BME280;56331;51.992;20.910;2022-12-07T03:15:51;99378.56;;;21.36;36.93
69221;BME280;56331;51.992;20.910;2022-12-07T03:18:18;99377.19;;;21.36;36.78
69221;BME280;56331;51.992;20.910;2022-12-07T03:20:44;99373.61;;;21.35;36.64
69221;BME280;56331;51.992;20.910;2022-12-07T03:23:14;99372.79;;;21.35;36.48
69221;BME280;56331;51.992;20.910;2022-12-07T03:25:48;99368.63;;;21.35;36.45
69221;BME280;56331;51.992;20.910;2022-12-07T03:28:18;99378.56;;;21.36;36.33
69221;BME280;56331;51.992;20.910;2022-12-07T03:30:56;99377.19;;;21.36;36.21
69221;BME280;56331;51.992;20.910;2022-12-07T03:33:24;99375.56;;;21.35;36.12
69221;BME280;56331;51.992;20.910;2022-12-07T03:35:59;99376.39;;;21.35;36.04
69221;BME280;56331;51.992;20.910;2022-12-07T03:38:31;99377.77;;;21.35;35.96
69221;BME280;56331;51.992;20.910;2022-12-07T03:41:07;99377.77;;;21.35;35.87
69221;BME280;56331;51.992;20.910;2022-12-07T03:43:35;99370.84;;;21.35;35.81
69221;BME280;56331;51.992;20.910;2022-12-07T03:51:56;99373.83;;;21.36;35.52
69221;BME280;56331;51.992;20.910;2022-12-07T03:54:32;99368.08;;;21.35;35.46
69221;BME280;56331;51.992;20.910;2022-12-07T03:56:59;99370.61;;;21.34;35.33
69221;BME280;56331;51.992;20.910;2022-12-07T03:59:27;99365.06;;;21.34;35.26
69221;BME280;56331;51.992;20.910;2022-12-07T04:01:59;99363.47;;;21.33;35.25
69221;BME280;56331;51.992;20.910;2022-12-07T04:04:25;99357.69;;;21.32;35.40
69221;BME280;56331;51.992;20.910;2022-12-07T04:06:52;99356.89;;;21.32;35.52
69221;BME280;56331;51.992;20.910;2022-12-07T04:09:19;99353.11;;;21.30;35.49
69221;BME280;56331;51.992;20.910;2022-12-07T04:11:46;99357.48;;;21.31;35.49
69221;BME280;56331;51.992;20.910;2022-12-07T04:14:13;99349.52;;;21.30;35.54
69221;BME280;56331;51.992;20.910;2022-12-07T04:16:53;99349.52;;;21.30;35.60
69221;BME280;56331;51.992;20.910;2022-12-07T04:19:30;99354.05;;;21.28;35.55
69221;BME280;56331;51.992;20.910;2022-12-07T04:21:59;99354.64;;;21.28;35.53
69221;BME280;56331;51.992;20.910;2022-12-07T04:24:27;99352.67;;;21.28;35.67
69221;BME280;56331;51.992;20.910;2022-12-07T04:26:54;99354.05;;;21.28;35.60
69221;BME280;56331;51.992;20.910;2022-12-07T04:29:21;99347.72;;;21.28;35.60
69221;BME280;56331;51.992;20.910;2022-12-07T04:31:48;99352.67;;;21.28;35.67
69221;BME280;56331;51.992;20.910;2022-12-07T04:34:16;99352.67;;;21.28;35.66
69221;BME280;56331;51.992;20.910;2022-12-07T04:36:43;99353.81;;;21.27;35.68
69221;BME280;56331;51.992;20.910;2022-12-07T04:39:26;99349.66;;;21.27;35.74
69221;BME280;56331;51.992;20.910;2022-12-07T04:41:50;99352.22;;;21.26;35.76
69221;BME280;56331;51.992;20.910;2022-12-07T04:44:16;99348.86;;;21.27;35.74
69221;BME280;56331;51.992;20.910;2022-12-07T04:46:43;99347.27;;;21.26;35.78
69221;BME280;56331;51.992;20.910;2022-12-07T04:49:11;99351.63;;;21.27;35.78
69221;BME280;56331;51.992;20.910;2022-12-07T04:51:38;99345.30;;;21.26;35.77
69221;BME280;56331;51.992;20.910;2022-12-07T04:54:05;99344.50;;;21.26;35.82
69221;BME280;56331;51.992;20.910;2022-12-07T04:56:32;99338.95;;;21.26;35.87
69221;BME280;56331;51.992;20.910;2022-12-07T04:58:59;99341.34;;;21.27;35.94
69221;BME280;56331;51.992;20.910;2022-12-07T05:01:25;99343.11;;;21.26;35.92
69221;BME280;56331;51.992;20.910;2022-12-07T05:03:51;99334.22;;;21.26;36.03
69221;BME280;56331;51.992;20.910;2022-12-07T05:06:18;99330.06;;;21.26;35.91
69221;BME280;56331;51.992;20.910;2022-12-07T05:08:45;99330.41;;;21.25;35.92
69221;BME280;56331;51.992;20.910;2022-12-07T05:11:12;99328.47;;;21.25;36.05
69221;BME280;56331;51.992;20.910;2022-12-07T05:13:57;99329.61;;;21.24;36.06
69221;BME280;56331;51.992;20.910;2022-12-07T05:16:24;99321.09;;;21.23;36.12
69221;BME280;56331;51.992;20.910;2022-12-07T05:18:50;99321.09;;;21.23;36.18
69221;BME280;56331;51.992;20.910;2022-12-07T05:21:17;99328.81;;;21.24;36.18
69221;BME280;56331;51.992;20.910;2022-12-07T05:23:43;99327.43;;;21.24;36.15
69221;BME280;56331;51.992;20.910;2022-12-07T05:26:10;99322.48;;;21.23;36.23
69221;BME280;56331;51.992;20.910;2022-12-07T05:28:37;99319.50;;;21.22;36.26
69221;BME280;56331;51.992;20.910;2022-12-07T05:31:04;99327.43;;;21.24;36.28
69221;BME280;56331;51.992;20.910;2022-12-07T05:33:31;99320.05;;;21.22;36.33
69221;BME280;56331;51.992;20.910;2022-12-07T05:35:57;99319.50;;;21.22;36.34
69221;BME280;56331;51.992;20.910;2022-12-07T05:38:24;99326.63;;;21.23;36.30
69221;BME280;56331;51.992;20.910;2022-12-07T05:40:51;99326.42;;;21.22;36.34
69221;BME280;56331;51.992;20.910;2022-12-07T05:43:17;99325.59;;;21.22;36.36
69221;BME280;56331;51.992;20.910;2022-12-07T05:45:43;99323.66;;;21.22;36.32
69221;BME280;56331;51.992;20.910;2022-12-07T05:48:10;99320.30;;;21.23;36.39
69221;BME280;56331;51.992;20.910;2022-12-07T05:50:36;99324.66;;;21.24;36.38
69221;BME280;56331;51.992;20.910;2022-12-07T05:53:03;99331.58;;;21.24;36.36
69221;BME280;56331;51.992;20.910;2022-12-07T05:55:29;99334.73;;;21.22;36.46
69221;BME280;56331;51.992;20.910;2022-12-07T05:57:56;99336.12;;;21.22;36.45
69221;BME280;56331;51.992;20.910;2022-12-07T06:00:41;99336.91;;;21.23;36.50
69221;BME280;56331;51.992;20.910;2022-12-07T06:03:07;99333.91;;;21.22;36.45
69221;BME280;56331;51.992;20.910;2022-12-07T06:05:34;99324.21;;;21.22;36.11
69221;BME280;56331;51.992;20.910;2022-12-07T06:08:00;99335.29;;;21.22;35.98
69221;BME280;56331;51.992;20.910;2022-12-07T06:10:27;99329.19;;;21.22;35.90
69221;BME280;56331;51.992;20.910;2022-12-07T06:12:53;99326.77;;;21.20;35.79
69221;BME280;56331;51.992;20.910;2022-12-07T06:15:20;99324.80;;;21.21;35.72
69221;BME280;56331;51.992;20.910;2022-12-07T06:17:48;99320.05;;;21.22;35.63
69221;BME280;56331;51.992;20.910;2022-12-07T06:20:15;99322.83;;;21.22;35.53
69221;BME280;56331;51.992;20.910;2022-12-07T06:22:41;99322.27;;;21.22;35.47
69221;BME280;56331;51.992;20.910;2022-12-07T06:25:08;99315.91;;;21.22;35.42
69221;BME280;56331;51.992;20.910;2022-12-07T06:27:35;99316.48;;;21.21;35.29
69221;BME280;56331;51.992;20.910;2022-12-07T06:30:03;99320.05;;;21.22;35.27
69221;BME280;56331;51.992;20.910;2022-12-07T06:32:33;99320.88;;;21.22;35.34
69221;BME280;56331;51.992;20.910;2022-12-07T06:34:59;99315.91;;;21.22;35.33
69221;BME280;56331;51.992;20.910;2022-12-07T06:37:26;99313.13;;;21.22;35.44
69221;BME280;56331;51.992;20.910;2022-12-07T06:39:53;99314.75;;;21.23;35.43
69221;BME280;56331;51.992;20.910;2022-12-07T06:42:20;99316.14;;;21.23;35.49
69221;BME280;56331;51.992;20.910;2022-12-07T06:44:46;99314.75;;;21.23;35.50
69221;BME280;56331;51.992;20.910;2022-12-07T06:47:13;99313.13;;;21.22;35.46
69221;BME280;56331;51.992;20.910;2022-12-07T06:49:39;99312.34;;;21.21;35.33
69221;BME280;56331;51.992;20.910;2022-12-07T06:52:05;99313.38;;;21.23;35.24
69221;BME280;56331;51.992;20.910;2022-12-07T06:54:32;99315.91;;;21.22;35.21
69221;BME280;56331;51.992;20.910;2022-12-07T06:56:58;99320.30;;;21.23;35.23
69221;BME280;56331;51.992;20.910;2022-12-07T06:59:25;99312.58;;;21.22;35.20
69221;BME280;56331;51.992;20.910;2022-12-07T07:01:51;99318.11;;;21.22;35.29
69221;BME280;56331;51.992;20.910;2022-12-07T07:04:18;99322.27;;;21.22;35.39
69221;BME280;56331;51.992;20.910;2022-12-07T07:06:44;99322.27;;;21.22;35.42
69221;BME280;56331;51.992;20.910;2022-12-07T07:09:10;99317.53;;;21.23;35.36
69221;BME280;56331;51.992;20.910;2022-12-07T07:11:37;99321.68;;;21.23;35.39
69221;BME280;56331;51.992;20.910;2022-12-07T07:17:04;99323.86;;;21.23;35.45
69221;BME280;56331;51.992;20.910;2022-12-07T07:19:31;99319.26;;;21.21;35.59
69221;BME280;56331;51.992;20.910;2022-12-07T07:21:58;99320.30;;;21.23;35.58
69221;BME280;56331;51.992;20.910;2022-12-07T07:24:24;99324.45;;;21.23;35.64
69221;BME280;56331;51.992;20.910;2022-12-07T07:26:50;99321.68;;;21.23;35.77
69221;BME280;56331;51.992;20.910;2022-12-07T07:29:17;99323.86;;;21.23;35.96
69221;BME280;56331;51.992;20.910;2022-12-07T07:31:43;99321.68;;;21.23;36.10
69221;BME280;56331;51.992;20.910;2022-12-07T07:34:10;99330.20;;;21.24;36.12
69221;BME280;56331;51.992;20.910;2022-12-07T07:36:37;99324.21;;;21.22;36.14
69221;BME280;56331;51.992;20.910;2022-12-07T07:39:04;99326.63;;;21.23;36.15
69221;BME280;56331;51.992;20.910;2022-12-07T07:41:31;99323.86;;;21.23;36.08
69221;BME280;56331;51.992;20.910;2022-12-07T07:43:57;99321.68;;;21.23;36.15
69221;BME280;56331;51.992;20.910;2022-12-07T07:46:24;99326.63;;;21.23;36.10
69221;BME280;56331;51.992;20.910;2022-12-07T07:48:51;99323.66;;;21.22;35.99
69221;BME280;56331;51.992;20.910;2022-12-07T07:51:17;99319.50;;;21.22;35.80
69221;BME280;56331;51.992;20.910;2022-12-07T07:53:44;99330.79;;;21.23;35.72
69221;BME280;56331;51.992;20.910;2022-12-07T07:56:10;99336.33;;;21.23;35.67
69221;BME280;56331;51.992;20.910;2022-12-07T07:58:37;99333.56;;;21.23;35.69
69221;BME280;56331;51.992;20.910;2022-12-07T08:01:06;99327.81;;;21.22;35.69
69221;BME280;56331;51.992;20.910;2022-12-07T08:03:33;99337.71;;;21.23;37.19
69221;BME280;56331;51.992;20.910;2022-12-07T08:05:59;99334.14;;;21.23;39.31
69221;BME280;56331;51.992;20.910;2022-12-07T08:08:26;99338.51;;;21.24;40.60
69221;BME280;56331;51.992;20.910;2022-12-07T08:10:52;99337.50;;;21.22;40.31
69221;BME280;56331;51.992;20.910;2022-12-07T08:13:18;99339.69;;;21.23;39.88
69221;BME280;56331;51.992;20.910;2022-12-07T08:15:47;99338.65;;;21.21;40.35
69221;BME280;56331;51.992;20.910;2022-12-07T08:18:15;99340.48;;;21.23;40.89
69221;BME280;56331;51.992;20.910;2022-12-07T08:20:41;99340.27;;;21.22;41.21
69221;BME280;56331;51.992;20.910;2022-12-07T08:23:09;99344.19;;;21.21;40.95
69221;BME280;56331;51.992;20.910;2022-12-07T08:25:36;99343.05;;;21.22;40.83
69221;BME280;56331;51.992;20.910;2022-12-07T08:28:03;99348.00;;;21.23;40.93
69221;BME280;56331;51.992;20.910;2022-12-07T08:30:30;99348.00;;;21.23;40.59
69221;BME280;56331;51.992;20.910;2022-12-07T08:32:57;99356.30;;;21.23;40.61
69221;BME280;56331;51.992;20.910;2022-12-07T08:35:24;99354.13;;;21.22;40.62
69221;BME280;56331;51.992;20.910;2022-12-07T08:37:51;99357.69;;;21.23;40.75
69221;BME280;56331;51.992;20.910;2022-12-07T08:40:18;99354.92;;;21.23;40.86
69221;BME280;56331;51.992;20.910;2022-12-07T08:42:51;99354.92;;;21.23;40.72
69221;BME280;56331;51.992;20.910;2022-12-07T08:45:19;99360.66;;;21.24;40.74
69221;BME280;56331;51.992;20.910;2022-12-07T08:47:52;99350.97;;;21.24;40.81
69221;BME280;56331;51.992;20.910;2022-12-07T08:50:19;99355.13;;;21.24;41.06
69221;BME280;56331;51.992;20.910;2022-12-07T08:52:51;99353.74;;;21.24;41.34
69221;BME280;56331;51.992;20.910;2022-12-07T08:55:19;99352.56;;;21.25;41.52
69221;BME280;56331;51.992;20.910;2022-12-07T08:57:46;99355.34;;;21.25;41.65
69221;BME280;56331;51.992;20.910;2022-12-07T09:00:14;99355.34;;;21.25;41.83
69221;BME280;56331;51.992;20.910;2022-12-07T09:02:40;99354.19;;;21.26;41.95
69221;BME280;56331;51.992;20.910;2022-12-07T09:05:08;99349.24;;;21.25;42.20
69221;BME280;56331;51.992;20.910;2022-12-07T09:07:34;99347.85;;;21.25;42.46
69221;BME280;56331;51.992;20.910;2022-12-07T09:10:03;99345.88;;;21.26;42.24
69221;BME280;56331;51.992;20.910;2022-12-07T09:12:30;99344.26;;;21.25;42.26
69221;BME280;56331;51.992;20.910;2022-12-07T09:14:56;99338.16;;;21.25;42.25
69221;BME280;56331;51.992;20.910;2022-12-07T09:17:23;99334.00;;;21.25;42.27
69221;BME280;56331;51.992;20.910;2022-12-07T09:19:49;99331.23;;;21.25;42.12
69221;BME280;56331;51.992;20.910;2022-12-07T09:22:16;99333.18;;;21.25;42.28
69221;BME280;56331;51.992;20.910;2022-12-07T09:24:42;99330.41;;;21.25;42.10
69221;BME280;56331;51.992;20.910;2022-12-07T09:27:10;99326.25;;;21.25;42.07
69221;BME280;56331;51.992;20.910;2022-12-07T09:29:37;99334.80;;;21.26;42.11
69221;BME280;56331;51.992;20.910;2022-12-07T09:32:04;99324.31;;;21.25;42.16
69221;BME280;56331;51.992;20.910;2022-12-07T09:34:31;99330.86;;;21.27;41.67
69221;BME280;56331;51.992;20.910;2022-12-07T09:37:00;99335.81;;;21.27;40.89
69221;BME280;56331;51.992;20.910;2022-12-07T09:39:27;99326.11;;;21.27;40.39
69221;BME280;56331;51.992;20.910;2022-12-07T09:41:53;99323.58;;;21.28;39.89
69221;BME280;56331;51.992;20.910;2022-12-07T09:44:23;99325.77;;;21.29;39.54
69221;BME280;56331;51.992;20.910;2022-12-07T09:46:50;99326.56;;;21.29;39.16
69221;BME280;56331;51.992;20.910;2022-12-07T09:49:24;99327.95;;;21.29;38.80
69221;BME280;56331;51.992;20.910;2022-12-07T09:52:01;99329.33;;;21.29;38.47
69221;BME280;56331;51.992;20.910;2022-12-07T09:54:28;99333.14;;;21.31;38.12
69221;BME280;56331;51.992;20.910;2022-12-07T09:56:55;99314.09;;;21.29;37.74
69221;BME280;56331;51.992;20.910;2022-12-07T09:59:22;99318.49;;;21.30;37.59
69221;BME280;56331;51.992;20.910;2022-12-07T10:01:50;99323.44;;;21.31;37.36
69221;BME280;56331;51.992;20.910;2022-12-07T10:04:19;99329.33;;;21.29;37.66
69221;BME280;56331;51.992;20.910;2022-12-07T10:06:48;99321.41;;;21.28;37.83
69221;BME280;56331;51.992;20.910;2022-12-07T10:09:16;99316.42;;;21.27;37.78
69221;BME280;56331;51.992;20.910;2022-12-07T10:14:30;99305.72;;;21.26;37.98
69221;BME280;56331;51.992;20.910;2022-12-07T10:16:57;99304.09;;;21.25;38.23
69221;BME280;56331;51.992;20.910;2022-12-07T10:19:30;99306.06;;;21.24;38.35
69221;BME280;56331;51.992;20.910;2022-12-07T10:22:07;99304.47;;;21.23;38.05
69221;BME280;56331;51.992;20.910;2022-12-07T10:24:32;99311.40;;;21.23;38.12
69221;BME280;56331;51.992;20.910;2022-12-07T10:26:59;99300.11;;;21.22;38.00
69221;BME280;56331;51.992;20.910;2022-12-07T10:29:37;99312.58;;;21.22;38.06
69221;BME280;56331;51.992;20.910;2022-12-07T10:34:43;99326.42;;;21.22;38.29
69221;BME280;56331;51.992;20.910;2022-12-07T10:39:54;99324.80;;;21.21;38.07
69221;BME280;56331;51.992;20.910;2022-12-07T10:42:26;99318.47;;;21.20;38.18
69221;BME280;56331;51.992;20.910;2022-12-07T10:53:36;99317.80;;;21.17;38.39
69221;BME280;56331;51.992;20.910;2022-12-07T11:04:35;99303.52;;;21.15;38.98
69221;BME280;56331;51.992;20.910;2022-12-07T11:07:21;99310.64;;;21.16;38.91
69221;BME280;56331;51.992;20.910;2022-12-07T11:23:17;99307.08;;;21.16;38.64
69221;BME280;56331;51.992;20.910;2022-12-07T11:37:28;99305.81;;;20.78;35.29
69221;BME280;56331;51.992;20.910;2022-12-07T11:39:56;99304.85;;;20.80;35.24
69221;BME280;56331;51.992;20.910;2022-12-07T11:42:26;99299.42;;;20.84;35.17
69221;BME280;56331;51.992;20.910;2022-12-07T11:45:18;99299.05;;;20.85;35.10
69221;BME280;56331;51.992;20.910;2022-12-07T11:47:35;99295.34;;;20.87;35.05
69221;BME280;56331;51.992;20.910;2022-12-07T11:50:13;99292.58;;;20.87;35.08
69221;BME280;56331;51.992;20.910;2022-12-07T11:52:52;99288.28;;;20.90;35.12
69221;BME280;56331;51.992;20.910;2022-12-07T11:55:26;99295.86;;;20.93;35.15
69221;BME280;56331;51.992;20.910;2022-12-07T11:58:14;99294.48;;;20.93;35.19
69221;BME280;56331;51.992;20.910;2022-12-07T12:00:39;99289.77;;;20.93;35.26
69221;BME280;56331;51.992;20.910;2022-12-07T12:03:13;99289.39;;;20.95;35.30
69221;BME280;56331;51.992;20.910;2022-12-07T12:05:39;99290.77;;;20.95;35.04
69221;BME280;56331;51.992;20.910;2022-12-07T12:08:16;99282.47;;;20.95;34.69
69221;BME280;56331;51.992;20.910;2022-12-07T12:22:16;99266.52;;;20.98;36.61
69221;BME280;56331;51.992;20.910;2022-12-07T12:24:45;99273.67;;;20.99;36.62
69221;BME280;56331;51.992;20.910;2022-12-07T12:27:21;99269.73;;;21.00;36.60
69221;BME280;56331;51.992;20.910;2022-12-07T12:29:51;99263.61;;;21.01;36.53
69221;BME280;56331;51.992;20.910;2022-12-07T12:35:00;99262.22;;;21.01;36.90
69221;BME280;56331;51.992;20.910;2022-12-07T12:42:57;99255.68;;;20.99;37.38
69221;BME280;56331;51.992;20.910;2022-12-07T12:45:28;99253.70;;;21.00;37.41
69221;BME280;56331;51.992;20.910;2022-12-07T12:48:00;99253.70;;;21.00;37.42
69221;BME280;56331;51.992;20.910;2022-12-07T12:50:35;99250.94;;;21.00;37.41
69221;BME280;56331;51.992;20.910;2022-12-07T12:53:19;99250.70;;;20.98;37.28
69221;BME280;56331;51.992;20.910;2022-12-07T12:56:07;99253.70;;;21.00;37.27
69221;BME280;56331;51.992;20.910;2022-12-07T12:58:33;99249.91;;;20.98;37.35
69221;BME280;56331;51.992;20.910;2022-12-07T13:01:41;99248.77;;;20.99;37.28
69221;BME280;56331;51.992;20.910;2022-12-07T13:06:49;99245.16;;;20.98;37.21
69221;BME280;56331;51.992;20.910;2022-12-07T13:09:21;99240.45;;;20.99;37.25
69221;BME280;56331;51.992;20.910;2022-12-07T13:11:50;99243.43;;;21.00;37.22
69221;BME280;56331;51.992;20.910;2022-12-07T13:25:31;99239.86;;;21.00;37.35
69221;BME280;56331;51.992;20.910;2022-12-07T13:28:12;99238.48;;;21.00;37.34
69221;BME280;56331;51.992;20.910;2022-12-07T13:31:32;99236.30;;;20.99;37.34
69221;BME280;56331;51.992;20.910;2022-12-07T13:33:15;99238.48;;;21.00;37.42
69221;BME280;56331;51.992;20.910;2022-12-07T13:35:43;99237.89;;;21.00;37.42
69221;BME280;56331;51.992;20.910;2022-12-07T13:38:31;99239.63;;;20.98;37.45
69221;BME280;56331;51.992;20.910;2022-12-07T13:40:42;99248.17;;;21.00;37.50
69221;BME280;56331;51.992;20.910;2022-12-07T13:43:14;99242.63;;;21.00;37.55
69221;BME280;56331;51.992;20.910;2022-12-07T13:45:41;99250.36;;;21.00;37.50
69221;BME280;56331;51.992;20.910;2022-12-07T13:50:54;99250.56;;;21.01;37.71
69221;BME280;56331;51.992;20.910;2022-12-07T13:53:22;99250.56;;;21.01;37.80
69221;BME280;56331;51.992;20.910;2022-12-07T13:55:48;99259.11;;;21.02;37.84
69221;BME280;56331;51.992;20.910;2022-12-07T13:58:15;99262.08;;;21.03;37.89
69221;BME280;56331;51.992;20.910;2022-12-07T14:00:42;99250.21;;;21.03;37.88
69221;BME280;56331;51.992;20.910;2022-12-07T14:05:43;99249.62;;;21.03;37.96
69221;BME280;56331;51.992;20.910;2022-12-07T14:13:38;99266.23;;;21.03;38.55
69221;BME280;56331;51.992;20.910;2022-12-07T14:16:31;99259.11;;;21.02;38.46
69221;BME280;56331;51.992;20.910;2022-12-07T14:18:59;99249.31;;;20.98;38.42
69221;BME280;56331;51.992;20.910;2022-12-07T14:21:29;99246.27;;;21.04;38.33
69221;BME280;56331;51.992;20.910;2022-12-07T14:24:11;99251.01;;;21.03;38.28
69221;BME280;56331;51.992;20.910;2022-12-07T14:26:39;99245.47;;;21.03;38.26
69221;BME280;56331;51.992;20.910;2022-12-07T14:31:54;99249.62;;;21.03;38.29
69221;BME280;56331;51.992;20.910;2022-12-07T14:34:21;99249.86;;;21.04;38.00
69221;BME280;56331;51.992;20.910;2022-12-07T14:36:48;99247.30;;;21.05;37.66
69221;BME280;56331;51.992;20.910;2022-12-07T14:39:14;99247.52;;;21.06;38.28
69221;BME280;56331;51.992;20.910;2022-12-07T14:41:41;99253.87;;;21.07;37.92
69221;BME280;56331;51.992;20.910;2022-12-07T14:44:20;99253.29;;;21.07;39.08
69221;BME280;56331;51.992;20.910;2022-12-07T14:46:48;99257.06;;;21.09;39.57
69221;BME280;56331;51.992;20.910;2022-12-07T14:49:15;99255.91;;;21.10;39.53
69221;BME280;56331;51.992;20.910;2022-12-07T14:51:43;99252.77;;;21.11;39.39
69221;BME280;56331;51.992;20.910;2022-12-07T14:54:16;99253.01;;;21.12;39.31
69221;BME280;56331;51.992;20.910;2022-12-07T14:56:40;99255.39;;;21.14;39.11
69221;BME280;56331;51.992;20.910;2022-12-07T14:59:07;99251.03;;;21.13;39.00
69221;BME280;56331;51.992;20.910;2022-12-07T15:01:33;99249.51;;;21.15;38.97
69221;BME280;56331;51.992;20.910;2022-12-07T15:04:00;99252.58;;;21.20;38.61
69221;BME280;56331;51.992;20.910;2022-12-07T15:06:26;99251.27;;;21.24;38.50
69221;BME280;56331;51.992;20.910;2022-12-07T15:08:53;99247.55;;;21.26;38.46
69221;BME280;56331;51.992;20.910;2022-12-07T15:11:21;99246.61;;;21.28;38.49
69221;BME280;56331;51.992;20.910;2022-12-07T15:13:47;99238.16;;;21.30;38.63
69221;BME280;56331;51.992;20.910;2022-12-07T15:16:32;99242.38;;;21.34;38.75